Time;durP1;ratioP1;P1;durP2;ratioP2;P2;SDS_P1;SDS_P2;PMS_P1;PMS_P2;Temp;Humidity;BMP_temperature;BMP_pressure;BME280_temperature;BME280_humidity;BME280_pressure;Samples;Min_cycle;Max_cycle;Signal;HPM_P1;HPM_P2
2023/08/04 00:00:38;;;;;;;14.57;4.57;;;16.60;99.90;;;;;;5033599;28;20430;-70
2023/08/04 00:03:05;;;;;;;4.63;4.23;;;16.70;99.90;;;;;;5018175;28;20482;-69
2023/08/04 00:05:31;;;;;;;8.60;5.30;;;16.70;99.90;;;;;;5033719;28;20434;-69
2023/08/04 00:07:59;;;;;;;8.07;4.97;;;16.70;99.90;;;;;;5034772;28;20442;-72
2023/08/04 00:10:25;;;;;;;6.77;4.10;;;16.80;99.90;;;;;;5035453;28;20191;-69
2023/08/04 00:12:51;;;;;;;8.23;5.27;;;16.80;99.90;;;;;;5034786;28;20421;-70
2023/08/04 00:15:17;;;;;;;6.37;4.50;;;16.80;99.90;;;;;;5033859;28;20552;-70
2023/08/04 00:17:45;;;;;;;7.50;4.50;;;16.70;99.90;;;;;;5034265;28;20195;-70
2023/08/04 00:20:12;;;;;;;5.23;4.70;;;16.70;99.90;;;;;;5033217;28;20809;-70
2023/08/04 00:22:38;;;;;;;12.07;5.20;;;16.70;99.90;;;;;;5035061;28;20405;-70
2023/08/04 00:25:06;;;;;;;10.70;5.50;;;16.80;99.90;;;;;;5017547;28;20410;-74
2023/08/04 00:27:33;;;;;;;6.23;3.80;;;16.80;99.90;;;;;;5033479;28;20426;-70
2023/08/04 00:30:01;;;;;;;12.03;4.70;;;16.80;99.90;;;;;;5019125;28;20474;-70
2023/08/04 00:32:28;;;;;;;8.50;4.43;;;16.80;99.90;;;;;;5032888;28;20808;-70
2023/08/04 00:34:56;;;;;;;10.37;3.77;;;16.80;99.90;;;;;;5034274;28;20953;-77
2023/08/04 00:37:22;;;;;;;3.90;3.60;;;16.80;99.90;;;;;;5026936;28;20963;-71
2023/08/04 00:39:50;;;;;;;9.10;4.30;;;16.80;99.90;;;;;;4997921;28;20865;-70
2023/08/04 00:42:17;;;;;;;7.90;3.80;;;16.70;99.90;;;;;;4997879;28;20425;-72
2023/08/04 00:44:46;;;;;;;4.50;3.77;;;16.70;99.90;;;;;;5014194;28;20419;-70
2023/08/04 00:47:13;;;;;;;14.80;4.17;;;16.80;99.90;;;;;;5014642;28;20423;-70
2023/08/04 00:49:40;;;;;;;9.20;3.93;;;16.80;99.90;;;;;;5011299;28;20557;-70
2023/08/04 00:52:08;;;;;;;9.63;3.30;;;16.80;99.90;;;;;;5033998;28;20402;-70
2023/08/04 00:54:35;;;;;;;4.90;3.60;;;16.70;99.90;;;;;;5033976;28;20438;-70
2023/08/04 00:57:02;;;;;;;10.90;3.77;;;16.80;99.90;;;;;;5033179;28;20930;-70
2023/08/04 00:59:29;;;;;;;7.07;3.47;;;16.80;99.90;;;;;;5033533;28;20521;-70
2023/08/04 01:01:55;;;;;;;5.03;3.80;;;16.80;99.90;;;;;;5033389;28;20413;-70
2023/08/04 01:04:21;;;;;;;7.13;3.30;;;16.80;99.90;;;;;;5033363;28;20437;-74
2023/08/04 01:07:12;;;;;;;10.80;3.50;;;16.80;99.90;;;;;;5032944;28;20258;-70
2023/08/04 01:10:14;;;;;;;3.83;3.33;;;16.70;99.90;;;;;;5035045;28;20430;-70
2023/08/04 01:12:43;;;;;;;14.47;4.30;;;16.70;99.90;;;;;;5034950;28;20762;-71
2023/08/04 01:15:11;;;;;;;7.70;3.87;;;16.70;99.90;;;;;;5033566;28;20417;-72
2023/08/04 01:17:40;;;;;;;11.27;3.57;;;16.70;99.90;;;;;;5031241;28;20540;-74
2023/08/04 01:20:07;;;;;;;9.63;4.03;;;16.60;99.90;;;;;;5016766;28;20414;-70
2023/08/04 01:22:35;;;;;;;4.03;3.77;;;16.70;99.90;;;;;;5033536;28;20414;-73
2023/08/04 01:25:05;;;;;;;4.00;3.67;;;16.60;99.90;;;;;;5033033;28;20505;-75
2023/08/04 01:27:35;;;;;;;5.03;3.80;;;16.60;99.90;;;;;;5017337;28;20441;-70
2023/08/04 01:30:06;;;;;;;8.00;3.83;;;16.60;99.90;;;;;;5030527;28;20481;-70
2023/08/04 01:32:33;;;;;;;4.10;3.70;;;16.70;99.90;;;;;;5031012;28;20512;-70
2023/08/04 01:34:59;;;;;;;5.73;3.87;;;16.70;99.90;;;;;;5032606;28;20403;-71
2023/08/04 01:37:25;;;;;;;5.70;3.83;;;16.60;99.90;;;;;;5032103;28;20480;-70
2023/08/04 01:39:52;;;;;;;8.30;4.10;;;16.50;99.90;;;;;;5033454;28;20407;-70
2023/08/04 01:42:19;;;;;;;6.07;4.13;;;16.50;99.90;;;;;;5032992;28;20179;-70
2023/08/04 01:44:46;;;;;;;9.33;3.90;;;16.50;99.90;;;;;;5034599;28;20410;-71
2023/08/04 01:47:11;;;;;;;5.47;3.70;;;16.60;99.90;;;;;;5031371;28;20537;-70
2023/08/04 01:49:39;;;;;;;5.63;3.83;;;16.60;99.90;;;;;;5032889;28;20553;-70
2023/08/04 01:52:05;;;;;;;5.23;3.50;;;16.60;99.90;;;;;;5031058;28;20176;-70
2023/08/04 01:54:31;;;;;;;3.80;2.90;;;16.60;99.90;;;;;;5032560;28;20449;-70
2023/08/04 01:57:00;;;;;;;4.50;3.20;;;16.60;99.90;;;;;;5031343;28;20431;-72
2023/08/04 01:59:27;;;;;;;3.67;3.30;;;16.60;99.90;;;;;;5032254;28;20436;-70
2023/08/04 02:01:56;;;;;;;5.17;3.27;;;16.60;99.90;;;;;;5018976;28;20762;-70
2023/08/04 02:04:22;;;;;;;7.27;3.10;;;16.60;99.90;;;;;;5013338;28;20927;-71
2023/08/04 02:06:48;;;;;;;6.10;3.20;;;16.60;99.90;;;;;;5012137;28;20419;-70
2023/08/04 02:09:14;;;;;;;12.03;3.60;;;16.60;99.90;;;;;;5013655;28;21001;-72
2023/08/04 02:11:41;;;;;;;5.00;3.23;;;16.60;99.90;;;;;;5012399;28;20600;-70
2023/08/04 02:14:07;;;;;;;15.27;3.93;;;16.60;99.90;;;;;;5016652;28;20237;-71
2023/08/04 02:16:33;;;;;;;5.00;3.27;;;16.60;99.90;;;;;;5031148;28;20414;-70
2023/08/04 02:19:05;;;;;;;5.83;3.60;;;16.60;99.90;;;;;;5032966;28;20233;-72
2023/08/04 02:21:32;;;;;;;8.03;4.13;;;16.50;99.90;;;;;;5031464;28;20422;-70
2023/08/04 02:23:58;;;;;;;5.90;3.23;;;16.50;99.90;;;;;;5015986;28;20919;-70
2023/08/04 02:26:25;;;;;;;6.30;3.50;;;16.40;97.90;;;;;;5015096;28;20410;-71
2023/08/04 02:28:54;;;;;;;4.20;2.67;;;16.40;94.80;;;;;;5015401;28;20425;-70
2023/08/04 02:31:23;;;;;;;5.93;3.20;;;16.30;91.80;;;;;;5032192;28;20417;-71
2023/08/04 02:33:48;;;;;;;3.53;3.23;;;16.30;85.40;;;;;;5030997;28;20449;-69
2023/08/04 02:36:14;;;;;;;4.30;3.77;;;16.20;85.30;;;;;;5032458;28;20414;-71
2023/08/04 02:38:41;;;;;;;5.57;3.60;;;16.20;85.40;;;;;;5015637;28;20192;-70
2023/08/04 02:41:09;;;;;;;4.57;3.30;;;16.20;81.30;;;;;;5033417;28;20917;-70
2023/08/04 02:43:35;;;;;;;4.40;3.37;;;16.10;74.30;;;;;;5031411;28;20448;-70
2023/08/04 02:46:02;;;;;;;4.53;3.00;;;16.00;70.60;;;;;;5025108;28;20435;-69
2023/08/04 02:48:27;;;;;;;9.90;3.67;;;16.00;71.00;;;;;;5012250;28;20765;-70
2023/08/04 02:51:10;;;;;;;4.60;3.87;;;15.90;68.50;;;;;;5013309;28;20454;-72
2023/08/04 02:53:40;;;;;;;9.90;4.13;;;15.90;73.20;;;;;;5012785;28;20275;-70
2023/08/04 02:56:14;;;;;;;6.80;3.27;;;15.90;74.30;;;;;;5011595;28;20450;-70
2023/08/04 02:58:42;;;;;;;9.00;3.93;;;15.80;74.30;;;;;;5015732;28;20450;-70
2023/08/04 03:01:08;;;;;;;5.53;2.90;;;15.80;76.70;;;;;;5031659;28;20529;-71
2023/08/04 03:03:34;;;;;;;6.43;3.63;;;15.80;71.30;;;;;;5031450;28;20855;-72
2023/08/04 03:06:01;;;;;;;4.80;3.10;;;15.70;72.20;;;;;;5032270;28;20418;-70
2023/08/04 03:08:28;;;;;;;5.27;4.17;;;15.80;77.10;;;;;;5032974;28;20929;-69
2023/08/04 03:10:54;;;;;;;8.20;4.03;;;15.70;75.90;;;;;;5031443;28;20450;-70
2023/08/04 03:13:20;;;;;;;5.70;3.80;;;15.70;75.80;;;;;;5032534;28;20969;-70
2023/08/04 03:15:46;;;;;;;5.37;3.67;;;15.70;78.70;;;;;;5032002;28;20402;-70
2023/08/04 03:18:12;;;;;;;4.23;3.60;;;15.80;84.50;;;;;;5032861;28;20460;-70
2023/08/04 03:20:40;;;;;;;4.70;3.43;;;15.80;84.50;;;;;;5032526;28;20168;-71
2023/08/04 03:23:06;;;;;;;4.63;3.40;;;15.80;79.80;;;;;;5032964;28;20444;-70
2023/08/04 03:25:33;;;;;;;6.17;3.53;;;15.80;75.40;;;;;;5030968;28;20787;-70
2023/08/04 03:28:00;;;;;;;5.67;4.47;;;15.70;70.00;;;;;;5031764;28;20467;-73
2023/08/04 03:30:27;;;;;;;6.87;5.07;;;15.70;69.90;;;;;;5020010;28;20475;-70
2023/08/04 03:32:53;;;;;;;6.00;3.10;;;15.70;69.80;;;;;;5013142;28;20408;-71
2023/08/04 03:35:20;;;;;;;5.50;3.80;;;15.70;67.80;;;;;;5012379;28;20756;-70
2023/08/04 03:37:45;;;;;;;4.27;3.40;;;15.70;66.00;;;;;;5030311;28;20590;-70
2023/08/04 03:40:11;;;;;;;12.30;3.80;;;15.70;64.40;;;;;;5032006;28;20509;-70
2023/08/04 03:42:38;;;;;;;4.97;3.50;;;15.70;62.10;;;;;;5032302;28;20180;-70
2023/08/04 03:45:07;;;;;;;5.43;3.83;;;15.70;59.90;;;;;;5031841;28;20509;-71
2023/08/04 03:47:34;;;;;;;8.37;3.03;;;15.70;57.90;;;;;;5032948;28;20442;-70
2023/08/04 03:50:04;;;;;;;4.83;4.20;;;15.70;53.10;;;;;;5031939;28;20457;-70
2023/08/04 03:52:30;;;;;;;11.83;4.27;;;15.60;52.50;;;;;;5032669;28;20415;-70
2023/08/04 03:54:56;;;;;;;6.87;4.20;;;15.60;52.70;;;;;;5032298;28;20907;-71
2023/08/04 03:57:22;;;;;;;5.20;4.40;;;15.60;54.00;;;;;;5030990;28;20450;-72
2023/08/04 03:59:51;;;;;;;9.37;3.70;;;15.60;51.40;;;;;;5018882;28;20435;-70
2023/08/04 04:02:17;;;;;;;5.30;4.20;;;15.60;51.70;;;;;;5030547;28;20463;-69
2023/08/04 04:04:42;;;;;;;3.97;3.43;;;15.60;52.90;;;;;;5035008;28;20445;-69
2023/08/04 04:07:08;;;;;;;5.37;3.60;;;15.60;51.00;;;;;;5034722;28;20215;-70
2023/08/04 04:09:34;;;;;;;5.60;3.80;;;15.60;55.30;;;;;;5034399;28;20204;-70
2023/08/04 04:11:59;;;;;;;7.23;3.50;;;15.70;53.80;;;;;;5035377;28;20537;-69
2023/08/04 04:14:25;;;;;;;6.90;4.30;;;15.70;56.60;;;;;;5034122;28;20179;-70
2023/08/04 04:16:51;;;;;;;9.23;3.40;;;15.80;55.90;;;;;;5021428;28;20200;-71
2023/08/04 04:19:16;;;;;;;4.97;3.70;;;15.80;56.30;;;;;;5015704;28;20176;-71
2023/08/04 04:21:42;;;;;;;5.73;3.67;;;15.80;56.50;;;;;;5024623;28;20198;-70
2023/08/04 04:24:08;;;;;;;3.90;3.43;;;15.90;54.00;;;;;;5033793;28;20188;-70
2023/08/04 04:26:35;;;;;;;8.60;4.20;;;15.90;53.90;;;;;;5032252;28;20504;-70
2023/08/04 04:29:00;;;;;;;5.50;3.83;;;15.90;48.30;;;;;;5018998;28;20180;-69
2023/08/04 04:31:27;;;;;;;6.83;3.27;;;15.90;44.90;;;;;;5018775;28;20428;-70
2023/08/04 04:33:52;;;;;;;3.80;3.50;;;15.90;40.40;;;;;;5035775;28;20247;-70
2023/08/04 04:36:18;;;;;;;5.03;3.50;;;15.90;38.20;;;;;;5033482;28;20518;-70
2023/08/04 04:38:44;;;;;;;6.43;3.43;;;15.90;38.20;;;;;;5034948;28;20188;-70
2023/08/04 04:41:09;;;;;;;6.80;4.40;;;15.80;38.10;;;;;;5031717;28;20174;-71
2023/08/04 04:43:36;;;;;;;9.53;3.50;;;15.80;29.70;;;;;;5035226;28;20204;-70
2023/08/04 04:46:03;;;;;;;11.70;3.50;;;15.80;30.40;;;;;;5034154;28;20175;-71
2023/08/04 04:48:30;;;;;;;6.43;3.53;;;15.80;27.80;;;;;;5033982;28;20438;-70
2023/08/04 04:50:55;;;;;;;4.03;3.63;;;15.70;26.50;;;;;;5035254;28;20489;-69
2023/08/04 04:53:21;;;;;;;7.50;3.00;;;15.70;28.30;;;;;;5034016;28;20438;-73
2023/08/04 04:55:47;;;;;;;4.90;3.57;;;15.70;32.60;;;;;;5007515;28;20242;-73
2023/08/04 04:58:13;;;;;;;5.10;3.70;;;15.80;38.10;;;;;;5032148;28;20195;-70
2023/08/04 05:00:41;;;;;;;4.47;3.10;;;15.80;38.20;;;;;;5013925;28;20203;-70
2023/08/04 05:03:09;;;;;;;3.63;3.00;;;15.80;38.20;;;;;;4997329;28;20180;-69
2023/08/04 05:05:35;;;;;;;6.90;3.87;;;15.80;38.10;;;;;;5014747;28;20434;-69
2023/08/04 05:08:01;;;;;;;3.37;3.17;;;15.80;26.90;;;;;;5019209;28;20454;-71
2023/08/04 05:10:27;;;;;;;3.97;3.50;;;15.80;31.80;;;;;;5014912;28;20495;-70
2023/08/04 05:12:53;;;;;;;3.93;3.00;;;15.80;35.30;;;;;;5019924;28;20454;-70
2023/08/04 05:15:19;;;;;;;4.47;3.10;;;15.80;37.50;;;;;;5033843;28;20175;-70
2023/08/04 05:17:45;;;;;;;5.27;3.37;;;15.80;38.00;;;;;;5034599;28;20414;-70
2023/08/04 05:20:14;;;;;;;5.60;2.93;;;15.90;38.20;;;;;;5034750;28;20762;-70
2023/08/04 05:22:41;;;;;;;5.30;2.80;;;15.90;38.20;;;;;;5034189;28;20797;-70
2023/08/04 05:25:08;;;;;;;7.30;3.70;;;16.00;38.30;;;;;;5033847;28;20456;-70
2023/08/04 05:27:35;;;;;;;3.17;2.87;;;16.00;28.30;;;;;;5033380;28;20454;-69
2023/08/04 05:30:03;;;;;;;6.40;3.27;;;15.90;22.40;;;;;;5034375;28;20527;-70
2023/08/04 05:32:29;;;;;;;4.77;3.17;;;16.00;19.60;;;;;;5033783;28;20422;-71
2023/08/04 05:34:54;;;;;;;9.60;2.83;;;16.00;21.30;;;;;;5034073;28;20390;-74
2023/08/04 05:37:20;;;;;;;6.80;2.33;;;16.10;24.50;;;;;;5017654;28;20192;-70
2023/08/04 05:39:45;;;;;;;6.20;2.77;;;16.10;17.70;;;;;;5013231;28;20175;-70
2023/08/04 05:42:11;;;;;;;4.00;3.30;;;16.20;15.50;;;;;;5027312;28;20539;-69
2023/08/04 05:44:37;;;;;;;3.73;2.70;;;16.20;11.50;;;;;;5033125;28;20179;-69
2023/08/04 05:47:03;;;;;;;4.87;3.27;;;16.30;7.70;;;;;;5033146;28;20196;-68
2023/08/04 05:49:32;;;;;;;4.63;3.70;;;16.30;1.00;;;;;;5034342;28;20552;-68
2023/08/04 05:51:59;;;;;;;4.00;2.87;;;16.30;1.00;;;;;;5034047;28;20721;-77
2023/08/04 05:54:26;;;;;;;7.00;2.90;;;16.40;1.00;;;;;;5018651;28;20940;-72
2023/08/04 05:56:53;;;;;;;4.47;2.90;;;16.40;1.00;;;;;;5030726;28;20525;-70
2023/08/04 05:59:19;;;;;;;5.30;3.10;;;16.50;1.00;;;;;;5033185;28;20415;-70
2023/08/04 06:01:44;;;;;;;2.93;2.63;;;16.50;1.00;;;;;;5016752;28;20417;-70
2023/08/04 06:04:10;;;;;;;3.90;3.10;;;16.50;1.00;;;;;;5034219;28;20175;-70
2023/08/04 06:06:36;;;;;;;5.40;2.40;;;16.60;1.00;;;;;;5032043;28;20718;-70
2023/08/04 06:09:02;;;;;;;5.13;3.30;;;16.60;1.00;;;;;;5032526;28;20183;-70
2023/08/04 06:11:28;;;;;;;3.63;2.40;;;16.60;1.00;;;;;;5033674;28;20202;-70
2023/08/04 06:13:55;;;;;;;5.73;2.33;;;16.60;1.00;;;;;;5014829;28;20462;-70
2023/08/04 06:16:20;;;;;;;3.67;2.70;;;16.60;1.00;;;;;;4998814;28;20194;-70
2023/08/04 06:18:48;;;;;;;5.87;2.60;;;16.60;1.00;;;;;;5033668;28;20430;-70
2023/08/04 06:21:14;;;;;;;3.60;2.60;;;16.70;1.00;;;;;;5019411;28;20606;-70
2023/08/04 06:23:45;;;;;;;5.83;2.37;;;16.80;1.00;;;;;;5013979;28;20487;-70
2023/08/04 06:26:12;;;;;;;3.70;2.33;;;16.70;1.00;;;;;;4995675;28;20625;-70
2023/08/04 06:28:39;;;;;;;4.43;2.63;;;16.80;1.00;;;;;;5012155;28;20439;-71
2023/08/04 06:31:05;;;;;;;6.73;2.53;;;16.90;1.00;;;;;;5012794;28;20467;-71
2023/08/04 06:33:32;;;;;;;2.40;2.20;;;17.00;1.00;;;;;;4996464;28;20427;-70
2023/08/04 06:35:58;;;;;;;2.47;2.27;;;17.00;1.00;;;;;;5029103;28;20180;-71
2023/08/04 06:38:25;;;;;;;6.57;2.10;;;17.10;1.00;;;;;;5032354;28;20992;-71
2023/08/04 06:40:52;;;;;;;4.50;2.23;;;17.20;1.00;;;;;;5032416;28;20446;-70
2023/08/04 06:43:19;;;;;;;2.80;2.00;;;17.30;1.00;;;;;;5032296;28;20199;-71
2023/08/04 06:45:45;;;;;;;3.80;2.60;;;17.30;1.00;;;;;;5015069;28;20976;-71
2023/08/04 06:48:10;;;;;;;6.13;2.20;;;17.30;1.00;;;;;;5030231;28;20462;-72
2023/08/04 06:50:36;;;;;;;2.07;1.97;;;17.40;1.00;;;;;;5030333;28;20211;-70
2023/08/04 06:53:02;;;;;;;3.00;2.50;;;17.40;1.00;;;;;;5023992;28;20180;-73
2023/08/04 06:55:37;;;;;;;4.97;2.27;;;17.40;1.00;;;;;;5014611;28;20230;-72
2023/08/04 06:58:03;;;;;;;2.57;2.00;;;17.40;1.00;;;;;;5028313;28;20294;-70
2023/08/04 07:00:30;;;;;;;8.10;2.03;;;17.50;1.00;;;;;;5025715;28;20577;-70
2023/08/04 07:02:56;;;;;;;3.37;1.80;;;17.60;1.00;;;;;;5027617;28;20178;-71
2023/08/04 07:05:21;;;;;;;4.90;1.80;;;17.70;1.00;;;;;;5027441;28;20406;-71
2023/08/04 07:07:49;;;;;;;7.63;2.13;;;17.60;1.00;;;;;;5015326;28;20223;-70
2023/08/04 07:10:15;;;;;;;7.20;2.37;;;17.70;1.00;;;;;;4998280;28;20286;-72
2023/08/04 07:12:41;;;;;;;4.23;2.40;;;17.70;1.00;;;;;;5031369;28;20461;-71
2023/08/04 07:15:08;;;;;;;3.67;1.90;;;17.60;99.90;;;;;;5024448;28;20187;-72
2023/08/04 07:17:33;;;;;;;2.00;1.57;;;17.60;99.90;;;;;;5027222;28;20215;-70
2023/08/04 07:19:59;;;;;;;5.70;2.27;;;17.60;99.90;;;;;;5032170;28;20438;-70
2023/08/04 07:22:25;;;;;;;7.87;2.47;;;17.60;99.90;;;;;;5025843;28;20176;-70
2023/08/04 07:24:53;;;;;;;4.90;1.70;;;17.60;99.90;;;;;;5018829;28;20691;-73
2023/08/04 07:27:19;;;;;;;5.50;2.10;;;17.70;99.90;;;;;;5033266;28;20620;-71
2023/08/04 07:29:46;;;;;;;4.50;2.07;;;17.70;99.90;;;;;;5032044;28;20462;-71
2023/08/04 07:32:13;;;;;;;2.10;1.90;;;17.80;99.90;;;;;;5032280;28;20437;-71
2023/08/04 07:34:39;;;;;;;2.33;1.60;;;17.90;99.90;;;;;;5031187;28;20418;-70
2023/08/04 07:37:05;;;;;;;3.23;1.63;;;18.00;99.90;;;;;;5031264;28;20503;-70
2023/08/04 07:39:31;;;;;;;8.20;1.90;;;18.00;99.90;;;;;;5035086;28;20266;-72
2023/08/04 07:41:56;;;;;;;4.30;2.10;;;17.90;99.90;;;;;;5021546;28;20538;-71
2023/08/04 07:44:22;;;;;;;3.13;1.50;;;18.10;99.90;;;;;;5022107;28;20645;-70
2023/08/04 07:46:49;;;;;;;3.50;1.90;;;18.20;99.90;;;;;;5030634;28;20207;-71
2023/08/04 07:49:16;;;;;;;2.80;1.37;;;18.30;99.90;;;;;;5047093;28;20180;-70
2023/08/04 07:51:44;;;;;;;2.33;1.50;;;18.30;99.90;;;;;;5031218;28;20434;-70
2023/08/04 07:54:09;;;;;;;7.73;1.63;;;18.30;99.90;;;;;;5033776;28;20438;-71
2023/08/04 07:56:35;;;;;;;6.73;1.70;;;18.30;99.90;;;;;;5034232;28;20428;-70
2023/08/04 07:59:01;;;;;;;5.37;2.00;;;18.30;99.90;;;;;;5027619;28;20176;-71
2023/08/04 08:01:27;;;;;;;2.30;1.67;;;18.30;99.90;;;;;;5007313;28;20176;-70
2023/08/04 08:03:53;;;;;;;2.90;1.40;;;18.30;95.10;;;;;;5015110;28;20772;-71
2023/08/04 08:06:18;;;;;;;2.20;1.27;;;18.30;99.50;;;;;;5032538;28;20172;-71
2023/08/04 08:08:48;;;;;;;2.43;1.50;;;18.50;99.90;;;;;;5034396;28;20453;-71
2023/08/04 08:11:14;;;;;;;2.10;1.47;;;18.50;99.90;;;;;;5034249;28;20290;-71
2023/08/04 08:13:39;;;;;;;4.83;1.97;;;18.50;95.10;;;;;;5034137;28;20506;-71
2023/08/04 08:16:13;;;;;;;2.60;1.50;;;18.60;95.90;;;;;;5034857;28;20270;-70
2023/08/04 08:18:39;;;;;;;3.73;1.60;;;18.60;95.20;;;;;;5030041;28;20221;-72
2023/08/04 08:21:07;;;;;;;1.63;1.50;;;18.70;95.20;;;;;;5035731;28;20895;-71
2023/08/04 08:23:33;;;;;;;4.00;1.90;;;18.80;95.30;;;;;;5035851;28;20217;-70
2023/08/04 08:25:58;;;;;;;2.40;1.47;;;18.80;95.30;;;;;;5032422;28;20429;-71
2023/08/04 08:28:24;;;;;;;3.50;1.73;;;18.80;95.30;;;;;;5035398;28;20440;-72
2023/08/04 08:30:50;;;;;;;4.53;1.77;;;18.80;95.30;;;;;;5035545;28;20287;-71
2023/08/04 08:33:15;;;;;;;4.87;1.83;;;18.90;95.30;;;;;;5034638;28;20636;-71
2023/08/04 08:35:41;;;;;;;5.00;1.70;;;18.80;95.20;;;;;;5034761;28;20163;-72
2023/08/04 08:38:07;;;;;;;6.67;2.10;;;18.90;95.30;;;;;;5034680;28;20192;-71
2023/08/04 08:40:33;;;;;;;2.10;1.87;;;18.90;95.30;;;;;;5035061;28;20279;-71
2023/08/04 08:42:58;;;;;;;2.70;1.90;;;19.00;95.30;;;;;;5035299;28;20174;-71
2023/08/04 08:45:28;;;;;;;4.43;1.93;;;19.00;95.30;;;;;;5034772;28;20192;-71
2023/08/04 08:47:56;;;;;;;2.93;1.37;;;19.00;93.30;;;;;;5034916;28;20218;-72
2023/08/04 08:50:26;;;;;;;1.70;1.60;;;19.00;95.30;;;;;;5034093;28;20450;-71
2023/08/04 08:53:10;;;;;;;2.40;2.00;;;19.00;90.30;;;;;;5015372;28;20904;-71
2023/08/04 08:55:38;;;;;;;4.20;2.53;;;19.10;95.40;;;;;;5032579;28;20454;-70
2023/08/04 08:58:04;;;;;;;6.90;2.13;;;19.00;95.30;;;;;;5020509;28;20447;-72
2023/08/04 09:00:30;;;;;;;7.63;1.90;;;19.00;88.70;;;;;;5015339;28;20399;-71
2023/08/04 09:02:57;;;;;;;6.40;1.80;;;19.00;94.10;;;;;;5015439;28;20912;-71
2023/08/04 09:05:22;;;;;;;2.20;1.63;;;19.00;95.30;;;;;;5013490;28;20266;-71
2023/08/04 09:07:49;;;;;;;7.83;2.20;;;19.20;95.40;;;;;;5014852;28;20890;-72
2023/08/04 09:10:15;;;;;;;6.07;2.53;;;19.50;95.50;;;;;;5016773;28;20311;-73
2023/08/04 09:12:44;;;;;;;4.20;1.80;;;19.70;95.60;;;;;;5015704;28;20403;-71
2023/08/04 09:15:12;;;;;;;4.33;2.23;;;19.80;84.90;;;;;;5014166;28;20469;-71
2023/08/04 09:17:39;;;;;;;8.60;1.83;;;19.80;72.70;;;;;;5014862;28;20510;-71
2023/08/04 09:20:07;;;;;;;4.77;1.63;;;19.70;48.10;;;;;;5030365;28;20411;-72
2023/08/04 09:22:39;;;;;;;3.60;2.20;;;19.60;41.20;;;;;;5013926;28;20450;-72
2023/08/04 09:25:05;;;;;;;2.50;2.20;;;19.40;30.10;;;;;;5024296;28;20428;-73
2023/08/04 09:27:35;;;;;;;3.07;1.67;;;19.30;22.90;;;;;;5032964;28;20464;-71
2023/08/04 09:30:04;;;;;;;3.40;1.90;;;19.30;41.30;;;;;;5028558;28;20985;-72
2023/08/04 09:32:32;;;;;;;2.47;1.50;;;19.30;32.30;;;;;;5033197;28;20444;-71
2023/08/04 09:35:03;;;;;;;5.43;1.87;;;19.30;37.60;;;;;;5027709;28;20415;-71
2023/08/04 09:37:33;;;;;;;6.10;2.23;;;19.30;31.80;;;;;;5014555;28;20438;-71
2023/08/04 09:40:04;;;;;;;4.23;1.90;;;19.40;37.10;;;;;;5014738;28;20494;-71
2023/08/04 09:42:35;;;;;;;2.13;1.77;;;19.40;31.80;;;;;;5014359;28;20439;-73
2023/08/04 09:45:01;;;;;;;7.73;2.00;;;19.40;34.30;;;;;;5028600;28;20430;-78
2023/08/04 09:47:27;;;;;;;2.50;1.70;;;19.40;31.70;;;;;;5033841;28;20815;-71
2023/08/04 09:49:54;;;;;;;4.23;1.90;;;19.40;33.60;;;;;;5034259;28;20195;-71
2023/08/04 09:52:28;;;;;;;3.43;1.87;;;19.40;33.50;;;;;;5032862;28;20406;-72
2023/08/04 09:54:55;;;;;;;2.63;2.00;;;19.40;32.80;;;;;;5033780;28;20799;-71
2023/08/04 09:57:22;;;;;;;6.70;2.47;;;19.40;23.30;;;;;;5033612;28;20795;-70
2023/08/04 09:59:51;;;;;;;4.40;1.70;;;19.30;18.90;;;;;;5019258;28;20489;-71
2023/08/04 10:02:18;;;;;;;2.20;1.53;;;19.20;22.80;;;;;;5033695;28;20399;-73
2023/08/04 10:04:49;;;;;;;2.77;1.40;;;19.20;18.30;;;;;;5033318;28;20410;-73
2023/08/04 10:07:18;;;;;;;3.23;1.60;;;19.20;15.00;;;;;;5033109;28;20433;-71
2023/08/04 10:09:48;;;;;;;2.40;1.27;;;19.40;19.10;;;;;;5034247;28;20454;-70
2023/08/04 10:12:15;;;;;;;2.97;2.03;;;19.40;22.70;;;;;;5032956;28;20779;-71
2023/08/04 10:14:41;;;;;;;4.00;1.67;;;19.50;19.00;;;;;;5033484;28;20768;-72
2023/08/04 10:17:08;;;;;;;2.70;1.90;;;19.50;20.50;;;;;;5032537;28;20431;-72
2023/08/04 10:19:34;;;;;;;5.17;1.57;;;19.40;12.20;;;;;;5032961;28;20430;-70
2023/08/04 10:22:05;;;;;;;3.10;2.07;;;19.50;12.50;;;;;;5034009;28;20805;-70
2023/08/04 10:24:37;;;;;;;2.07;1.70;;;19.30;5.40;;;;;;5033676;28;20399;-73
2023/08/04 10:27:21;;;;;;;6.57;1.97;;;19.20;7.00;;;;;;5031286;28;21007;-72
2023/08/04 10:30:13;;;;;;;6.93;1.70;;;19.00;5.30;;;;;;5032471;28;20454;-71
2023/08/04 10:32:40;;;;;;;6.60;1.57;;;19.00;2.90;;;;;;5033363;28;20870;-72
2023/08/04 10:35:16;;;;;;;2.73;1.70;;;19.20;18.80;;;;;;5031659;28;20484;-73
2023/08/04 10:37:55;;;;;;;1.93;1.60;;;19.20;3.70;;;;;;5033407;28;20418;-71
2023/08/04 10:40:32;;;;;;;3.27;1.60;;;19.40;9.40;;;;;;5033719;28;20409;-71
2023/08/04 10:43:06;;;;;;;2.57;1.30;;;19.70;1.00;;;;;;5031534;28;20390;-72
2023/08/04 10:45:55;;;;;;;4.63;1.87;;;19.90;1.00;;;;;;5026100;28;20430;-73
2023/08/04 10:48:21;;;;;;;4.97;1.60;;;20.60;1.00;;;;;;5032928;28;20479;-71
2023/08/04 10:50:50;;;;;;;4.40;1.20;;;21.10;1.00;;;;;;5033256;28;20448;-72
2023/08/04 10:53:17;;;;;;;5.60;1.30;;;21.30;1.00;;;;;;5033044;28;20403;-71
2023/08/04 10:55:54;;;;;;;3.20;1.30;;;21.60;1.00;;;;;;5032443;28;20453;-71
2023/08/04 10:58:21;;;;;;;1.93;1.30;;;22.20;1.00;;;;;;5032651;28;20814;-71
2023/08/04 11:00:46;;;;;;;2.50;1.50;;;22.50;1.00;;;;;;5027782;28;20474;-73
2023/08/04 11:03:23;;;;;;;1.80;1.20;;;23.10;1.00;;;;;;5013230;28;20428;-73
2023/08/04 11:05:50;;;;;;;2.50;1.10;;;23.60;1.00;;;;;;5012690;28;20541;-72
2023/08/04 11:08:18;;;;;;;2.30;1.10;;;23.90;1.00;;;;;;5012316;28;20484;-71
2023/08/04 11:10:55;;;;;;;2.00;1.20;;;23.90;1.00;;;;;;5013491;28;20451;-71
2023/08/04 11:13:23;;;;;;;3.63;1.00;;;23.70;1.00;;;;;;5033411;28;20430;-72
2023/08/04 11:15:51;;;;;;;3.00;1.57;;;23.50;1.00;;;;;;5036578;28;20395;-72
2023/08/04 11:18:22;;;;;;;3.23;1.20;;;23.20;1.00;;;;;;5030101;28;20443;-71
2023/08/04 11:20:48;;;;;;;3.37;1.10;;;22.70;1.00;;;;;;5017160;28;20403;-71
2023/08/04 11:23:14;;;;;;;6.50;1.53;;;22.40;1.00;;;;;;5016571;28;20411;-74
2023/08/04 11:25:40;;;;;;;2.17;1.47;;;22.20;1.00;;;;;;5023116;28;20180;-71
2023/08/04 11:28:07;;;;;;;3.83;1.00;;;22.00;1.00;;;;;;5016613;28;20199;-71
2023/08/04 11:30:36;;;;;;;3.63;1.40;;;22.20;1.00;;;;;;5016762;28;20478;-72
2023/08/04 11:33:03;;;;;;;3.13;1.17;;;22.30;1.00;;;;;;5022325;28;20430;-72
2023/08/04 11:35:32;;;;;;;1.80;1.20;;;22.30;1.00;;;;;;5029898;28;20993;-73
2023/08/04 11:38:01;;;;;;;4.70;1.10;;;22.60;1.00;;;;;;5035710;28;20441;-72
2023/08/04 11:40:27;;;;;;;5.73;1.20;;;22.80;1.00;;;;;;5036171;28;20407;-72
2023/08/04 11:42:58;;;;;;;2.93;1.67;;;22.70;1.00;;;;;;5036780;28;20429;-72
2023/08/04 11:45:23;;;;;;;5.20;1.40;;;22.60;1.00;;;;;;5035759;28;20413;-73
2023/08/04 11:47:49;;;;;;;2.97;1.00;;;22.40;1.00;;;;;;5036013;28;20426;-71
2023/08/04 11:50:16;;;;;;;2.10;0.80;;;22.20;1.00;;;;;;5027177;28;20265;-71
2023/08/04 11:52:45;;;;;;;6.03;1.60;;;22.40;1.00;;;;;;5034562;28;20175;-72
2023/08/04 11:55:11;;;;;;;5.10;2.60;;;22.70;1.00;;;;;;5034180;28;20968;-72
2023/08/04 11:57:55;;;;;;;1.70;1.30;;;23.80;1.00;;;;;;5036092;28;20509;-73
2023/08/04 12:00:37;;;;;;;5.97;1.10;;;24.40;1.00;;;;;;5034168;28;20589;-72
2023/08/04 12:03:04;;;;;;;2.20;1.43;;;25.40;1.00;;;;;;5030219;28;20937;-73
2023/08/04 12:05:31;;;;;;;1.90;1.80;;;25.70;1.00;;;;;;5034236;28;20398;-73
2023/08/04 12:07:59;;;;;;;1.97;0.83;;;25.50;1.00;;;;;;5035621;28;20426;-72
2023/08/04 12:10:25;;;;;;;2.00;1.27;;;25.20;1.00;;;;;;5036099;28;20548;-72
2023/08/04 12:12:51;;;;;;;3.57;1.30;;;24.70;1.00;;;;;;5035933;28;20467;-72
2023/08/04 12:15:17;;;;;;;1.20;0.90;;;25.30;1.00;;;;;;5034919;28;20899;-73
2023/08/04 12:17:44;;;;;;;5.47;1.00;;;25.30;1.00;;;;;;5035211;28;20519;-72
2023/08/04 12:20:13;;;;;;;1.93;0.70;;;25.00;1.00;;;;;;5036248;28;20394;-72
2023/08/04 12:22:41;;;;;;;2.80;0.90;;;24.60;1.00;;;;;;5033826;28;20422;-72
2023/08/04 12:25:08;;;;;;;4.37;0.93;;;24.70;1.00;;;;;;5034838;28;20398;-74
2023/08/04 12:27:34;;;;;;;2.80;0.80;;;25.00;1.00;;;;;;5034535;28;20445;-73
2023/08/04 12:30:00;;;;;;;2.30;1.00;;;25.90;1.00;;;;;;5035754;28;20446;-73
2023/08/04 12:32:27;;;;;;;3.47;0.90;;;26.40;1.00;;;;;;5036046;28;20533;-73
2023/08/04 12:34:54;;;;;;;2.90;1.00;;;26.60;1.00;;;;;;5035059;28;20409;-73
2023/08/04 12:37:19;;;;;;;3.13;1.20;;;26.60;1.00;;;;;;5034528;28;20539;-72
2023/08/04 12:39:45;;;;;;;2.43;1.00;;;26.00;99.90;;;;;;5025845;28;20434;-72
2023/08/04 12:42:11;;;;;;;1.10;0.83;;;25.90;1.00;;;;;;5015521;28;20222;-72
2023/08/04 12:44:37;;;;;;;3.40;1.20;;;25.20;99.90;;;;;;5015551;28;20178;-73
2023/08/04 12:47:03;;;;;;;2.50;1.30;;;24.50;99.90;;;;;;5014800;28;20214;-72
2023/08/04 12:49:28;;;;;;;1.57;0.90;;;24.10;99.90;;;;;;5033127;28;20179;-67
2023/08/04 12:51:54;;;;;;;5.67;1.07;;;24.00;99.90;;;;;;5032914;28;20494;-68